createdAt,value
2018-05-04T00:01:05.927Z,48.68
2018-05-04T00:03:31.902Z,48.57
2018-05-04T00:05:57.884Z,48.44
2018-05-04T00:08:23.865Z,48.65
2018-05-04T00:10:49.888Z,48.61
2018-05-04T00:13:15.834Z,48.66
2018-05-04T00:15:41.887Z,48.58
2018-05-04T00:18:07.865Z,48.58
2018-05-04T00:20:33.841Z,48.63
2018-05-04T00:22:59.815Z,48.68
2018-05-04T00:25:25.797Z,48.61
2018-05-04T00:27:51.779Z,48.53
2018-05-04T00:30:17.767Z,48.63
2018-05-04T00:32:43.752Z,48.65
2018-05-04T00:35:09.727Z,48.44
2018-05-04T00:37:35.715Z,48.55
2018-05-04T00:40:01.694Z,48.35
2018-05-04T00:42:27.709Z,48.47
2018-05-04T00:44:53.741Z,48.52
2018-05-04T00:47:19.710Z,48.41
2018-05-04T00:49:45.735Z,48.33
2018-05-04T00:52:11.743Z,48.45
2018-05-04T00:54:37.691Z,48.27
2018-05-04T00:57:03.682Z,48.27
2018-05-04T00:59:29.669Z,48.21
2018-05-04T01:01:55.653Z,48.30
2018-05-04T01:04:21.651Z,48.16
2018-05-04T01:06:47.635Z,48.41
2018-05-04T01:09:13.648Z,48.42
2018-05-04T01:11:39.597Z,48.30
2018-05-04T01:14:05.599Z,48.29
2018-05-04T01:16:31.586Z,48.32
2018-05-04T01:18:57.533Z,48.29
2018-05-04T01:21:23.550Z,48.28
2018-05-04T01:23:49.497Z,48.33
2018-05-04T01:26:15.478Z,48.14
2018-05-04T01:28:41.465Z,48.29
2018-05-04T01:31:07.487Z,48.32
2018-05-04T01:33:33.465Z,48.24
2018-05-04T01:35:59.444Z,48.09
2018-05-04T01:38:25.427Z,48.09
2018-05-04T01:40:51.409Z,48.21
2018-05-04T01:43:17.424Z,48.07
2018-05-04T01:45:43.377Z,48.04
2018-05-04T01:48:09.369Z,48.14
2018-05-04T01:50:35.346Z,48.01
2018-05-04T01:53:01.328Z,48.09
2018-05-04T01:55:27.309Z,47.97
2018-05-04T01:57:53.287Z,47.99
2018-05-04T02:00:19.267Z,47.96
2018-05-04T02:02:45.281Z,48.04
2018-05-04T02:05:11.233Z,48.03
2018-05-04T02:07:37.236Z,48.10
2018-05-04T02:10:03.260Z,48.04
2018-05-04T02:12:29.237Z,48.11
2018-05-04T02:14:55.225Z,48.12
2018-05-04T02:17:21.239Z,47.98
2018-05-04T02:19:47.186Z,48.04
2018-05-04T02:22:13.195Z,48.05
2018-05-04T02:24:39.143Z,48.04
2018-05-04T02:27:05.244Z,48.02
2018-05-04T02:29:31.237Z,48.00
2018-05-04T02:31:57.251Z,47.88
2018-05-04T02:34:23.230Z,47.83
2018-05-04T02:36:49.185Z,47.85
2018-05-04T02:39:15.178Z,47.85
2018-05-04T02:41:41.149Z,47.81
2018-05-04T02:44:07.124Z,47.82
2018-05-04T02:46:33.109Z,47.75
2018-05-04T02:48:59.085Z,47.76
2018-05-04T02:51:25.096Z,47.77
2018-05-04T02:53:51.090Z,47.76
2018-05-04T02:56:17.041Z,47.83
2018-05-04T02:58:43.054Z,47.72
2018-05-04T03:01:09.006Z,47.82
2018-05-04T03:03:35.022Z,47.88
2018-05-04T03:06:01.008Z,47.88
2018-05-04T03:08:26.955Z,47.83
2018-05-04T03:10:52.935Z,47.74
2018-05-04T03:13:18.946Z,47.78
2018-05-04T03:15:44.890Z,47.81
2018-05-04T03:18:10.872Z,47.85
2018-05-04T03:20:36.865Z,47.76
2018-05-04T03:23:02.836Z,47.78
2018-05-04T03:25:28.879Z,47.78
2018-05-04T03:27:54.823Z,47.70
2018-05-04T03:30:20.832Z,47.68
2018-05-04T03:32:46.817Z,47.70
2018-05-04T03:35:12.821Z,47.71
2018-05-04T03:37:38.780Z,47.66
2018-05-04T03:40:04.786Z,47.63
2018-05-04T03:42:30.735Z,47.63
2018-05-04T03:44:56.729Z,47.60
2018-05-04T03:47:22.703Z,47.62
2018-05-04T03:49:48.691Z,47.58
2018-05-04T03:52:14.676Z,47.56
2018-05-04T03:54:40.678Z,47.55
2018-05-04T03:57:06.629Z,47.61
2018-05-04T03:59:32.634Z,47.64
2018-05-04T04:01:58.647Z,47.67
2018-05-04T04:04:24.588Z,47.53
2018-05-04T04:06:50.572Z,47.53
2018-05-04T04:09:16.584Z,47.57
2018-05-04T04:11:42.529Z,47.56
2018-05-04T04:14:08.536Z,47.55
2018-05-04T04:16:34.536Z,47.58
2018-05-04T04:19:00.481Z,47.68
2018-05-04T04:21:26.469Z,47.63
2018-05-04T04:23:52.442Z,47.63
2018-05-04T04:26:18.465Z,47.66
2018-05-04T04:28:44.436Z,47.70
2018-05-04T04:31:10.383Z,47.70
2018-05-04T04:33:36.375Z,47.70
2018-05-04T04:36:02.357Z,47.77
2018-05-04T04:38:28.348Z,47.86
2018-05-04T04:40:54.350Z,47.97
2018-05-04T04:43:20.298Z,48.11
2018-05-04T04:45:46.273Z,48.07
2018-05-04T04:48:12.284Z,48.33
2018-05-04T04:50:38.296Z,48.75
2018-05-04T04:53:04.255Z,48.84
2018-05-04T04:55:30.279Z,48.78
2018-05-04T04:57:56.280Z,48.54
2018-05-04T05:00:22.281Z,48.95
2018-05-04T05:02:48.266Z,48.90
2018-05-04T05:05:14.242Z,48.95
2018-05-04T05:07:40.229Z,48.82
2018-05-04T05:10:06.276Z,49.03
2018-05-04T05:12:32.265Z,49.14
2018-05-04T05:14:58.237Z,49.16
2018-05-04T05:17:24.251Z,49.18
2018-05-04T05:19:50.274Z,49.00
2018-05-04T05:22:16.287Z,49.17
2018-05-04T05:24:42.256Z,49.03
2018-05-04T05:27:08.226Z,48.79
2018-05-04T05:29:34.270Z,48.85
2018-05-04T05:32:00.220Z,48.92
2018-05-04T05:34:26.182Z,49.15
2018-05-04T05:36:52.193Z,50.04
2018-05-04T05:39:18.214Z,49.31
2018-05-04T05:41:44.169Z,49.63
2018-05-04T05:44:10.188Z,49.95
2018-05-04T05:46:36.207Z,49.86
2018-05-04T05:49:02.187Z,49.66
2018-05-04T05:51:28.209Z,49.83
2018-05-04T05:53:54.192Z,49.68
2018-05-04T05:56:20.218Z,49.93
2018-05-04T05:58:46.210Z,49.64
2018-05-04T06:01:12.204Z,50.22
2018-05-04T06:03:38.163Z,49.65
2018-05-04T06:06:04.141Z,49.59
2018-05-04T06:08:30.124Z,49.73
2018-05-04T06:10:56.100Z,49.60
2018-05-04T06:13:22.151Z,49.48
2018-05-04T06:15:48.102Z,49.97
2018-05-04T06:18:14.132Z,49.99
2018-05-04T06:20:40.101Z,49.73
2018-05-04T06:23:06.113Z,49.57
2018-05-04T06:25:32.109Z,49.94
2018-05-04T06:27:58.067Z,49.60
2018-05-04T06:30:24.100Z,49.53
2018-05-04T06:32:50.050Z,49.80
2018-05-04T06:35:16.073Z,49.23
2018-05-04T06:37:42.055Z,49.69
2018-05-04T06:40:08.028Z,49.73
2018-05-04T06:42:34.036Z,49.72
2018-05-04T06:45:00.021Z,49.55
2018-05-04T06:47:26.012Z,49.53
2018-05-04T06:49:51.988Z,49.61
2018-05-04T06:52:17.997Z,49.51
2018-05-04T06:54:43.982Z,49.64
2018-05-04T06:57:09.955Z,49.69
2018-05-04T06:59:35.907Z,49.53
2018-05-04T07:02:01.890Z,49.64
2018-05-04T07:04:27.886Z,49.22
2018-05-04T07:06:53.920Z,49.28
2018-05-04T07:09:19.909Z,49.43
2018-05-04T07:11:45.891Z,49.43
2018-05-04T07:14:11.906Z,49.51
2018-05-04T07:16:37.884Z,49.44
2018-05-04T07:19:03.899Z,49.62
2018-05-04T07:21:29.935Z,49.60
2018-05-04T07:23:55.884Z,49.60
2018-05-04T07:26:21.902Z,49.56
2018-05-04T07:28:47.937Z,49.42
2018-05-04T07:31:13.904Z,49.42
2018-05-04T07:33:39.850Z,49.40
2018-05-04T07:36:05.918Z,49.40
2018-05-04T07:38:31.919Z,49.40
2018-05-04T07:40:57.922Z,49.14
2018-05-04T07:43:23.938Z,49.42
2018-05-04T07:45:49.916Z,49.17
2018-05-04T07:48:15.937Z,49.49
2018-05-04T07:50:41.908Z,49.48
2018-05-04T07:53:07.936Z,49.16
2018-05-04T07:55:34.030Z,49.15
2018-05-04T07:57:59.976Z,48.99
2018-05-04T08:00:25.958Z,49.29
2018-05-04T08:02:51.989Z,49.29
2018-05-04T08:05:17.963Z,49.04
2018-05-04T08:07:43.922Z,48.94
2018-05-04T08:10:09.938Z,49.25
2018-05-04T08:12:35.906Z,49.06
2018-05-04T08:15:01.917Z,49.12
2018-05-04T08:17:27.916Z,49.02
2018-05-04T08:19:53.905Z,49.31
2018-05-04T08:22:19.963Z,49.29
2018-05-04T08:24:45.942Z,49.07
2018-05-04T08:27:11.926Z,49.20
2018-05-04T08:29:37.930Z,49.13
2018-05-04T08:32:03.924Z,49.23
2018-05-04T08:34:29.874Z,49.27
2018-05-04T08:36:55.864Z,49.10
2018-05-04T08:39:21.845Z,49.25
2018-05-04T08:41:47.859Z,49.12
2018-05-04T08:44:13.866Z,49.14
2018-05-04T08:46:39.813Z,49.06
2018-05-04T08:49:05.809Z,49.16
2018-05-04T08:51:31.810Z,49.00
2018-05-04T08:53:57.793Z,49.01
2018-05-04T08:56:23.788Z,48.91
2018-05-04T08:58:49.779Z,49.00
2018-05-04T09:01:15.759Z,48.90
2018-05-04T09:03:41.786Z,48.85
2018-05-04T09:06:07.772Z,48.82
2018-05-04T09:08:33.727Z,48.95
2018-05-04T09:10:59.700Z,48.93
2018-05-04T09:13:25.713Z,48.91
2018-05-04T09:15:51.698Z,48.91
2018-05-04T09:18:17.703Z,48.76
2018-05-04T09:20:43.711Z,48.65
2018-05-04T09:23:09.718Z,48.81
2018-05-04T09:25:35.699Z,48.54
2018-05-04T09:28:01.686Z,48.55
2018-05-04T09:30:27.622Z,48.67
2018-05-04T09:32:53.603Z,48.56
2018-05-04T09:35:19.624Z,48.55
2018-05-04T09:37:45.580Z,48.56
2018-05-04T09:40:11.588Z,48.44
2018-05-04T09:42:37.583Z,48.66
2018-05-04T09:45:03.593Z,48.57
2018-05-04T09:47:29.542Z,48.48
2018-05-04T09:49:55.586Z,48.42
2018-05-04T09:52:21.534Z,48.42
2018-05-04T09:54:47.512Z,48.56
2018-05-04T09:57:13.505Z,48.35
2018-05-04T09:59:39.507Z,48.52
2018-05-04T10:02:05.513Z,48.49
2018-05-04T10:04:31.509Z,48.41
2018-05-04T10:06:57.550Z,48.47
2018-05-04T10:09:23.600Z,48.38
2018-05-04T10:11:49.580Z,48.49
2018-05-04T10:14:15.528Z,48.54
2018-05-04T10:16:41.549Z,48.49
2018-05-04T10:19:07.537Z,48.41
2018-05-04T10:21:33.573Z,48.23
2018-05-04T10:23:59.522Z,48.32
2018-05-04T10:26:25.494Z,48.23
2018-05-04T10:28:51.538Z,48.33
2018-05-04T10:31:17.585Z,48.26
2018-05-04T10:33:43.545Z,48.22
2018-05-04T10:36:09.576Z,48.17
2018-05-04T10:38:35.608Z,48.20
2018-05-04T10:41:01.556Z,48.33
2018-05-04T10:43:27.568Z,48.19
2018-05-04T10:45:53.520Z,48.33
2018-05-04T10:48:19.509Z,48.19
2018-05-04T10:50:45.537Z,48.18
2018-05-04T10:53:11.579Z,48.20
2018-05-04T10:55:37.572Z,48.26
2018-05-04T10:58:03.550Z,48.56
2018-05-04T11:00:29.547Z,48.60
2018-05-04T11:02:55.538Z,48.39
2018-05-04T11:05:21.619Z,48.65
2018-05-04T11:07:49.209Z,48.34
2018-05-04T11:10:15.196Z,48.64
2018-05-04T11:12:41.182Z,48.60
2018-05-04T11:15:07.266Z,48.65
2018-05-04T11:17:33.256Z,48.69
2018-05-04T11:19:59.298Z,48.57
2018-05-04T11:22:25.307Z,48.65
2018-05-04T11:24:51.285Z,48.43
2018-05-04T11:27:17.310Z,48.34
2018-05-04T11:29:43.265Z,48.60
2018-05-04T11:32:09.282Z,48.39
2018-05-04T11:34:35.263Z,48.62
2018-05-04T11:37:01.237Z,48.57
2018-05-04T11:39:27.210Z,48.54
2018-05-04T11:41:53.236Z,48.59
2018-05-04T11:44:19.249Z,48.52
2018-05-04T11:46:45.229Z,48.31
2018-05-04T11:49:11.204Z,48.63
2018-05-04T11:51:37.216Z,48.52
2018-05-04T11:54:03.164Z,48.48
2018-05-04T11:56:29.185Z,48.61
2018-05-04T11:58:55.311Z,48.80
2018-05-04T12:01:21.327Z,48.65
2018-05-04T12:03:47.274Z,48.77
2018-05-04T12:06:13.335Z,48.73
2018-05-04T12:08:39.308Z,48.87
2018-05-04T12:11:05.318Z,48.78
2018-05-04T12:13:31.346Z,48.62
2018-05-04T12:15:57.294Z,48.49
2018-05-04T12:18:23.281Z,48.89
2018-05-04T12:20:49.260Z,48.72
2018-05-04T12:23:16.223Z,48.49
2018-05-04T12:25:42.265Z,48.52
2018-05-04T12:28:09.405Z,48.61
2018-05-04T12:30:35.389Z,48.60
2018-05-04T12:33:01.429Z,48.82
2018-05-04T12:35:28.909Z,48.96
2018-05-04T12:37:54.944Z,48.72
2018-05-04T12:40:20.893Z,48.94
2018-05-04T12:42:46.884Z,48.61
2018-05-04T12:45:12.900Z,48.71
2018-05-04T12:47:38.845Z,48.66
2018-05-04T12:50:04.882Z,48.64
2018-05-04T12:52:31.531Z,48.57
2018-05-04T12:54:57.552Z,48.50
2018-05-04T12:57:23.507Z,48.60
2018-05-04T12:59:49.492Z,48.79
2018-05-04T13:02:15.502Z,48.94
2018-05-04T13:04:41.478Z,48.63
2018-05-04T13:07:07.450Z,48.74
2018-05-04T13:09:34.072Z,48.93
2018-05-04T13:12:00.062Z,48.74
2018-05-04T13:14:26.058Z,49.03
2018-05-04T13:16:52.040Z,48.91
2018-05-04T13:19:18.063Z,48.79
2018-05-04T13:21:44.034Z,48.86
2018-05-04T13:24:12.485Z,49.18
2018-05-04T13:26:38.463Z,49.25
2018-05-04T13:29:04.476Z,48.99
2018-05-04T13:31:30.474Z,49.19
2018-05-04T13:33:56.453Z,48.92
2018-05-04T13:36:23.349Z,48.91
2018-05-04T13:38:50.175Z,49.42
2018-05-04T13:41:16.930Z,49.08
2018-05-04T13:43:47.746Z,49.30
2018-05-04T13:46:13.909Z,49.33
2018-05-04T13:48:40.559Z,49.03
2018-05-04T13:51:05.875Z,49.56
2018-05-04T13:53:31.936Z,49.19
2018-05-04T13:55:57.922Z,49.25
2018-05-04T13:58:23.904Z,49.67
2018-05-04T14:00:49.922Z,49.65
2018-05-04T14:03:15.899Z,49.54
2018-05-04T14:05:41.924Z,49.52
2018-05-04T14:08:07.930Z,49.58
2018-05-04T14:10:33.940Z,49.52
2018-05-04T14:13:00.037Z,49.55
2018-05-04T14:15:26.018Z,49.73
2018-05-04T14:17:52.003Z,49.66
2018-05-04T14:20:18.026Z,49.92
2018-05-04T14:22:44.813Z,49.30
2018-05-04T14:25:10.839Z,49.37
2018-05-04T14:27:58.251Z,49.57
2018-05-04T14:30:24.551Z,49.65
2018-05-04T14:32:50.689Z,49.53
2018-05-04T14:35:17.602Z,49.28
2018-05-04T14:37:44.604Z,49.02
2018-05-04T14:40:10.808Z,49.18
2018-05-04T14:42:37.726Z,49.08
2018-05-04T14:45:04.058Z,49.14
2018-05-04T14:47:30.086Z,49.32
2018-05-04T14:49:56.076Z,49.20
2018-05-04T14:52:22.064Z,49.54
2018-05-04T14:54:48.050Z,49.11
2018-05-04T14:57:14.047Z,49.03
2018-05-04T14:59:40.361Z,49.70
2018-05-04T15:02:06.350Z,49.64
2018-05-04T15:04:32.348Z,49.46
2018-05-04T15:06:58.367Z,49.29
2018-05-04T15:09:24.554Z,49.05
2018-05-04T15:11:50.611Z,49.22
2018-05-04T15:14:16.543Z,49.33
2018-05-04T15:16:42.572Z,49.56
2018-05-04T15:19:08.631Z,49.08
2018-05-04T15:21:34.598Z,49.91
2018-05-04T15:24:00.574Z,49.37
2018-05-04T15:26:26.746Z,49.49
2018-05-04T15:28:52.722Z,49.56
2018-05-04T15:31:18.694Z,49.47
2018-05-04T15:33:44.673Z,49.86
2018-05-04T15:36:10.653Z,49.55
2018-05-04T15:38:36.666Z,49.79
2018-05-04T15:41:02.648Z,49.57
2018-05-04T15:43:28.630Z,49.60
2018-05-04T15:45:54.687Z,50.12
2018-05-04T15:48:20.653Z,49.60
2018-05-04T15:50:46.614Z,50.20
2018-05-04T15:53:12.597Z,49.59
2018-05-04T15:55:38.621Z,49.37
2018-05-04T15:58:04.608Z,49.90
2018-05-04T16:00:30.562Z,49.79
2018-05-04T16:02:56.575Z,49.96
2018-05-04T16:05:22.561Z,49.95
2018-05-04T16:07:48.569Z,50.13
2018-05-04T16:10:14.566Z,50.16
2018-05-04T16:12:40.616Z,50.31
2018-05-04T16:15:06.622Z,50.07
2018-05-04T16:17:32.576Z,49.95
2018-05-04T16:19:58.603Z,49.71
2018-05-04T16:22:24.616Z,49.75
2018-05-04T16:24:50.585Z,50.32
2018-05-04T16:27:16.619Z,49.85
2018-05-04T16:29:42.611Z,49.66
2018-05-04T16:32:08.583Z,49.79
2018-05-04T16:34:34.570Z,49.72
2018-05-04T16:37:00.585Z,49.46
2018-05-04T16:39:26.550Z,50.11
2018-05-04T16:41:52.565Z,49.82
2018-05-04T16:44:18.568Z,49.59
2018-05-04T16:46:44.522Z,49.62
2018-05-04T16:49:10.511Z,49.77
2018-05-04T16:51:36.534Z,50.04
2018-05-04T16:54:02.530Z,49.51
2018-05-04T16:56:28.494Z,49.70
2018-05-04T16:58:54.509Z,49.93
2018-05-04T17:01:20.465Z,49.73
2018-05-04T17:03:46.462Z,49.81
2018-05-04T17:06:12.446Z,49.89
2018-05-04T17:08:38.457Z,50.30
2018-05-04T17:11:04.447Z,49.90
2018-05-04T17:13:30.391Z,50.03
2018-05-04T17:15:56.424Z,49.83
2018-05-04T17:18:22.386Z,49.62
2018-05-04T17:20:48.414Z,49.70
2018-05-04T17:23:14.514Z,49.96
2018-05-04T17:25:40.491Z,50.03
2018-05-04T17:28:06.722Z,49.82
2018-05-04T17:30:32.718Z,49.53
2018-05-04T17:32:58.746Z,49.59
2018-05-04T17:35:24.730Z,49.74
2018-05-04T17:37:50.707Z,49.83
2018-05-04T17:40:16.905Z,49.64
2018-05-04T17:42:42.678Z,49.41
2018-05-04T17:45:08.710Z,49.66
2018-05-04T17:47:34.760Z,49.72
2018-05-04T17:50:01.057Z,49.66
2018-05-04T17:52:28.158Z,49.78
2018-05-04T17:54:54.133Z,49.67
2018-05-04T17:57:24.024Z,49.30
2018-05-04T17:59:50.046Z,49.77
2018-05-04T18:02:16.061Z,49.91
2018-05-04T18:04:42.082Z,49.51
2018-05-04T18:07:08.338Z,49.52
2018-05-04T18:09:34.356Z,49.74
2018-05-04T18:12:00.333Z,49.48
2018-05-04T18:14:26.990Z,49.46
2018-05-04T18:16:53.199Z,49.55
2018-05-04T18:19:19.767Z,49.54
2018-05-04T18:21:45.774Z,49.52
2018-05-04T18:24:11.791Z,49.57
2018-05-04T18:26:37.804Z,49.43
2018-05-04T18:29:03.770Z,49.54
2018-05-04T18:31:29.784Z,49.50
2018-05-04T18:33:55.830Z,49.49
2018-05-04T18:36:21.885Z,49.57
2018-05-04T18:38:47.890Z,49.76
2018-05-04T18:41:13.885Z,49.71
2018-05-04T18:43:39.876Z,49.66
2018-05-04T18:46:05.864Z,49.91
2018-05-04T18:48:31.849Z,49.73
2018-05-04T18:50:57.833Z,49.50
2018-05-04T18:53:31.680Z,49.44
2018-05-04T18:55:57.662Z,49.66
2018-05-04T18:58:23.663Z,49.78
2018-05-04T19:00:49.678Z,49.71
2018-05-04T19:03:15.667Z,49.58
2018-05-04T19:05:41.653Z,49.44
2018-05-04T19:08:07.635Z,49.44
2018-05-04T19:10:33.799Z,49.28
2018-05-04T19:12:59.935Z,49.27
2018-05-04T19:15:26.007Z,49.19
2018-05-04T19:17:51.997Z,49.11
2018-05-04T19:20:18.336Z,49.08
2018-05-04T19:22:44.320Z,49.03
2018-05-04T19:25:10.333Z,49.31
2018-05-04T19:27:36.346Z,49.27
2018-05-04T19:30:02.321Z,49.27
2018-05-04T19:32:29.102Z,49.12
2018-05-04T19:34:55.456Z,49.12
2018-05-04T19:37:22.276Z,49.12
2018-05-04T19:39:48.477Z,48.97
2018-05-04T19:42:14.556Z,49.02
2018-05-04T19:44:40.551Z,48.89
2018-05-04T19:47:06.893Z,48.82
2018-05-04T19:49:32.895Z,48.86
2018-05-04T19:51:58.908Z,48.86
2018-05-04T19:54:24.868Z,48.90
2018-05-04T19:56:50.891Z,48.86
2018-05-04T19:59:16.884Z,48.75
2018-05-04T20:01:42.917Z,48.77
2018-05-04T20:04:08.900Z,48.70
2018-05-04T20:06:34.843Z,48.66
2018-05-04T20:09:00.833Z,48.71
2018-05-04T20:11:26.831Z,48.66
2018-05-04T20:13:52.838Z,48.67
2018-05-04T20:16:18.820Z,48.68
2018-05-04T20:18:44.844Z,48.69
2018-05-04T20:21:10.784Z,48.56
2018-05-04T20:23:36.765Z,48.56
2018-05-04T20:26:02.810Z,48.53
2018-05-04T20:28:28.820Z,48.54
2018-05-04T20:30:54.799Z,48.58
2018-05-04T20:33:20.803Z,48.50
2018-05-04T20:35:46.786Z,48.49
2018-05-04T20:38:12.778Z,48.48
2018-05-04T20:40:38.751Z,48.46
2018-05-04T20:43:04.764Z,48.44
2018-05-04T20:45:30.752Z,48.45
2018-05-04T20:47:56.704Z,48.44
2018-05-04T20:50:22.693Z,48.39
2018-05-04T20:52:48.672Z,48.37
2018-05-04T20:55:14.673Z,48.37
2018-05-04T20:57:40.646Z,48.33
2018-05-04T21:00:06.691Z,48.27
2018-05-04T21:02:32.675Z,48.34
2018-05-04T21:04:58.686Z,48.29
2018-05-04T21:07:24.632Z,48.26
2018-05-04T21:09:50.609Z,48.22
2018-05-04T21:12:16.623Z,48.23
2018-05-04T21:14:42.573Z,48.19
2018-05-04T21:17:08.565Z,48.24
2018-05-04T21:19:34.540Z,48.19
2018-05-04T21:22:00.520Z,48.23
2018-05-04T21:24:26.512Z,48.14
2018-05-04T21:26:52.521Z,48.11
2018-05-04T21:29:18.475Z,48.18
2018-05-04T21:31:44.500Z,48.19
2018-05-04T21:34:10.460Z,48.04
2018-05-04T21:36:36.443Z,48.07
2018-05-04T21:39:02.539Z,48.07
2018-05-04T21:41:28.436Z,48.03
2018-05-04T21:43:54.409Z,48.10
2018-05-04T21:46:20.412Z,48.12
2018-05-04T21:48:46.374Z,48.00
2018-05-04T21:51:12.397Z,48.00
2018-05-04T21:53:38.378Z,48.05
2018-05-04T21:56:04.372Z,47.97
2018-05-04T21:58:30.353Z,47.90
2018-05-04T22:00:56.336Z,47.97
2018-05-04T22:03:22.314Z,47.96
2018-05-04T22:05:48.328Z,47.84
2018-05-04T22:08:14.277Z,47.87
2018-05-04T22:10:40.361Z,47.97
2018-05-04T22:13:06.278Z,47.93
2018-05-04T22:15:32.336Z,47.83
2018-05-04T22:17:58.296Z,47.87
2018-05-04T22:20:24.271Z,47.79
2018-05-04T22:22:50.258Z,47.80
2018-05-04T22:25:16.243Z,47.78
2018-05-04T22:27:42.214Z,47.82
2018-05-04T22:30:08.235Z,47.74
2018-05-04T22:32:34.215Z,47.74
2018-05-04T22:35:00.190Z,47.75
2018-05-04T22:37:26.178Z,47.74
2018-05-04T22:39:52.149Z,47.68
2018-05-04T22:42:18.163Z,47.70
2018-05-04T22:44:44.110Z,47.67
2018-05-04T22:47:10.140Z,47.63
2018-05-04T22:49:36.148Z,47.61
2018-05-04T22:52:02.099Z,47.70
2018-05-04T22:54:28.131Z,47.47
2018-05-04T22:56:54.113Z,47.59
2018-05-04T22:59:20.120Z,47.61
2018-05-04T23:01:46.115Z,47.71
2018-05-04T23:04:12.095Z,47.63
2018-05-04T23:06:38.075Z,47.54
2018-05-04T23:09:04.066Z,47.48
2018-05-04T23:11:30.073Z,47.59
2018-05-04T23:13:56.083Z,47.52
2018-05-04T23:16:22.026Z,47.50
2018-05-04T23:18:48.012Z,47.42
2018-05-04T23:21:14.025Z,47.44
2018-05-04T23:23:39.969Z,47.54
2018-05-04T23:26:05.951Z,47.43
2018-05-04T23:28:31.925Z,47.50
2018-05-04T23:30:57.942Z,47.47
2018-05-04T23:33:23.935Z,47.58
2018-05-04T23:35:49.921Z,47.70
2018-05-04T23:38:15.860Z,47.74
2018-05-04T23:40:41.880Z,47.76
2018-05-04T23:43:07.891Z,47.78
2018-05-04T23:45:33.869Z,47.75
2018-05-04T23:47:59.838Z,47.81
2018-05-04T23:50:25.826Z,47.75
2018-05-04T23:52:51.808Z,47.79
2018-05-04T23:55:17.787Z,47.80
2018-05-04T23:57:43.770Z,47.81
